Time;durP1;ratioP1;P1;durP2;ratioP2;P2;SDS_P1;SDS_P2;PMS_P1;PMS_P2;Temp;Humidity;BMP_temperature;BMP_pressure;BME280_temperature;BME280_humidity;BME280_pressure;Samples;Min_cycle;Max_cycle;Signal;HPM_P1;HPM_P2
2024/02/09 00:00:19;;;;;;;7.53;1.58;;;22.60;40.50;;;;;;5066468;28;20146;-35
2024/02/09 00:02:45;;;;;;;4.55;1.40;;;22.60;40.50;;;;;;5067684;28;20033;-35
2024/02/09 00:05:13;;;;;;;2.80;1.30;;;22.60;40.50;;;;;;5070659;28;20050;-31
2024/02/09 00:07:40;;;;;;;4.15;1.70;;;22.60;40.50;;;;;;5069641;28;20044;-36
2024/02/09 00:10:07;;;;;;;3.22;1.73;;;22.60;40.50;;;;;;5066380;28;20025;-34
2024/02/09 00:12:35;;;;;;;2.63;1.38;;;22.50;40.40;;;;;;5055284;28;20047;-32
2024/02/09 00:15:06;;;;;;;2.80;1.45;;;22.50;40.60;;;;;;5073131;28;20032;-32
2024/02/09 00:17:33;;;;;;;2.80;1.40;;;22.60;40.70;;;;;;5070550;28;20036;-32
2024/02/09 00:20:00;;;;;;;2.50;1.70;;;22.50;40.60;;;;;;5069804;28;20052;-35
2024/02/09 00:22:26;;;;;;;2.85;1.73;;;22.50;40.60;;;;;;5073881;28;20828;-37
2024/02/09 00:24:52;;;;;;;1.63;0.93;;;22.50;40.60;;;;;;5071790;28;20072;-33
2024/02/09 00:27:18;;;;;;;2.22;1.42;;;22.50;40.70;;;;;;5071700;28;20056;-32
2024/02/09 00:29:45;;;;;;;2.57;1.50;;;22.50;40.80;;;;;;5071881;28;20024;-33
2024/02/09 00:32:14;;;;;;;2.75;1.50;;;22.50;40.80;;;;;;5065847;28;20056;-35
2024/02/09 00:34:40;;;;;;;2.83;1.40;;;22.50;41.00;;;;;;5066852;28;20077;-36
2024/02/09 00:37:09;;;;;;;1.63;1.50;;;22.50;41.10;;;;;;5073651;28;20035;-31
2024/02/09 00:39:35;;;;;;;3.22;1.42;;;22.50;41.10;;;;;;5070961;28;20111;-36
2024/02/09 00:42:04;;;;;;;2.88;1.45;;;22.50;41.10;;;;;;5068312;28;20024;-36
2024/02/09 00:44:34;;;;;;;1.83;1.30;;;22.50;41.10;;;;;;5072251;28;20114;-32
2024/02/09 00:47:01;;;;;;;1.80;1.40;;;22.50;41.10;;;;;;5080189;28;20033;-34
2024/02/09 00:49:28;;;;;;;4.78;1.70;;;22.40;41.00;;;;;;5079514;28;20023;-33
2024/02/09 00:51:55;;;;;;;1.45;1.27;;;22.40;41.00;;;;;;5071880;28;20099;-37
2024/02/09 00:54:22;;;;;;;2.35;1.40;;;22.40;41.00;;;;;;5062409;28;20021;-35
2024/02/09 00:56:48;;;;;;;3.17;1.40;;;22.40;41.10;;;;;;5074048;28;20031;-32
2024/02/09 00:59:17;;;;;;;1.80;1.35;;;22.50;41.20;;;;;;5079375;28;20036;-35
2024/02/09 01:01:43;;;;;;;2.58;1.50;;;22.50;41.20;;;;;;5075903;28;20040;-33
2024/02/09 01:04:11;;;;;;;2.13;1.20;;;22.50;41.20;;;;;;5075887;28;20056;-32
2024/02/09 01:06:40;;;;;;;3.15;1.50;;;22.40;41.10;;;;;;5078190;28;20033;-32
2024/02/09 01:09:09;;;;;;;2.42;1.48;;;22.40;41.10;;;;;;5059694;28;20116;-36
2024/02/09 01:11:36;;;;;;;3.25;1.35;;;22.40;41.20;;;;;;5072681;28;20028;-34
2024/02/09 02:47:03;;;;;;;2.35;1.80;;;22.40;42.30;;;;;;5072969;28;20024;-34
2024/02/09 03:05:57;;;;;;;2.47;1.50;;;22.40;42.30;;;;;;5075023;28;20083;-32
2024/02/09 03:08:23;;;;;;;2.75;1.95;;;22.40;42.50;;;;;;5070012;28;20136;-34
2024/02/09 03:10:49;;;;;;;2.22;1.50;;;22.40;42.40;;;;;;5070954;28;20067;-33
2024/02/09 03:13:16;;;;;;;2.63;1.75;;;22.40;42.40;;;;;;5074747;28;20029;-34
2024/02/09 03:15:45;;;;;;;2.50;1.50;;;22.40;42.40;;;;;;5073837;28;20029;-33
2024/02/09 03:18:11;;;;;;;2.80;1.70;;;22.30;42.30;;;;;;5067169;28;20482;-34
2024/02/09 03:20:40;;;;;;;4.38;1.73;;;22.30;42.30;;;;;;5052628;28;20052;-31
2024/02/09 03:23:06;;;;;;;2.92;1.27;;;22.30;42.40;;;;;;5071343;28;20041;-36
2024/02/09 03:25:32;;;;;;;3.38;1.65;;;22.30;42.50;;;;;;5074053;28;20062;-32
2024/02/09 03:27:59;;;;;;;3.10;1.70;;;22.30;42.40;;;;;;5075116;28;20036;-36
2024/02/09 03:30:26;;;;;;;2.28;1.67;;;22.30;42.40;;;;;;5072642;28;20532;-33
2024/02/09 03:32:53;;;;;;;2.33;1.38;;;22.30;42.40;;;;;;5072825;28;20034;-33
2024/02/09 03:35:19;;;;;;;1.92;1.50;;;22.30;42.30;;;;;;5077713;28;20065;-36
2024/02/09 03:37:45;;;;;;;3.25;1.90;;;22.30;42.40;;;;;;5076506;28;20123;-34
2024/02/09 03:40:14;;;;;;;2.60;1.80;;;22.30;42.50;;;;;;5076364;28;20089;-32
2024/02/09 03:42:41;;;;;;;2.35;1.50;;;22.30;42.40;;;;;;5074289;28;20096;-33
2024/02/09 03:45:07;;;;;;;5.65;1.27;;;22.30;42.40;;;;;;5076285;28;20041;-34
2024/02/09 03:47:34;;;;;;;3.20;2.00;;;22.30;42.40;;;;;;5082361;28;20044;-36
2024/02/09 03:50:00;;;;;;;2.83;1.80;;;22.30;42.40;;;;;;5079761;28;20294;-32
2024/02/09 03:52:27;;;;;;;2.03;1.60;;;22.30;42.40;;;;;;5073690;28;20029;-33
2024/02/09 03:54:54;;;;;;;2.92;1.90;;;22.30;42.50;;;;;;5072627;28;20040;-33
2024/02/09 03:57:24;;;;;;;3.03;1.83;;;22.30;42.60;;;;;;5080665;28;20632;-33
2024/02/09 03:59:51;;;;;;;3.40;1.92;;;22.30;42.50;;;;;;5077613;28;20075;-35
2024/02/09 04:02:17;;;;;;;3.65;1.83;;;22.30;42.40;;;;;;5061745;28;20029;-36
2024/02/09 04:04:43;;;;;;;3.13;1.52;;;22.30;42.50;;;;;;5073553;28;20040;-35
2024/02/09 04:07:09;;;;;;;3.08;2.10;;;22.30;42.40;;;;;;5078608;28;20401;-34
2024/02/09 04:09:36;;;;;;;11.80;2.35;;;22.30;42.80;;;;;;5083798;28;20028;-34
2024/02/09 04:12:03;;;;;;;6.20;2.10;;;22.30;43.00;;;;;;5077464;28;20044;-35
2024/02/09 04:14:29;;;;;;;6.88;2.00;;;22.30;43.00;;;;;;5076023;28;20281;-34
2024/02/09 04:16:55;;;;;;;7.30;2.47;;;22.30;42.90;;;;;;5077896;28;20033;-35
2024/02/09 04:19:22;;;;;;;4.10;1.85;;;22.30;42.90;;;;;;5064571;28;20028;-32
2024/02/09 04:21:48;;;;;;;7.13;2.20;;;22.30;42.80;;;;;;5084420;28;20096;-35
2024/02/09 04:24:24;;;;;;;9.20;3.00;;;22.30;42.70;;;;;;5082065;28;20078;-33
2024/02/09 04:26:53;;;;;;;17.92;4.32;;;22.30;42.70;;;;;;5067073;28;20060;-33
2024/02/09 04:29:23;;;;;;;21.83;4.70;;;22.30;42.70;;;;;;5077467;28;20088;-35
2024/02/09 04:31:49;;;;;;;28.23;5.68;;;22.30;42.70;;;;;;5081119;28;20084;-35
2024/02/09 04:34:15;;;;;;;26.15;6.00;;;22.30;42.60;;;;;;5077088;28;20107;-38
2024/02/09 04:36:43;;;;;;;22.10;5.32;;;22.30;42.60;;;;;;5081770;28;20124;-32
2024/02/09 04:39:10;;;;;;;;;;;22.30;42.60;;;;;;5077188;28;20056;-34
2024/02/09 04:41:40;;;;;;;22.52;6.20;;;22.30;42.70;;;;;;5082900;28;19919;-33
2024/02/09 04:44:06;;;;;;;23.73;5.78;;;22.30;42.70;;;;;;5074549;28;20079;-33
2024/02/09 04:46:33;;;;;;;25.17;6.05;;;22.30;42.70;;;;;;5077453;28;20036;-33
2024/02/09 04:49:00;;;;;;;23.23;5.40;;;22.30;42.70;;;;;;5083488;28;20457;-32
2024/02/09 04:51:28;;;;;;;18.23;5.82;;;22.30;42.70;;;;;;5081396;28;20029;-34
2024/02/09 04:53:54;;;;;;;16.27;4.95;;;22.30;42.70;;;;;;5076201;28;20493;-33
2024/02/09 04:56:32;;;;;;;19.23;4.53;;;22.30;42.70;;;;;;5077276;28;20032;-32
2024/02/09 04:59:04;;;;;;;16.45;4.63;;;22.30;42.80;;;;;;5075092;28;20504;-33
2024/02/09 05:01:32;;;;;;;12.82;4.70;;;22.30;42.70;;;;;;5054751;28;20117;-33
2024/02/09 05:03:58;;;;;;;;;;;22.30;42.80;;;;;;5069736;28;20023;-35
2024/02/09 05:06:24;;;;;;;12.02;4.18;;;22.30;42.80;;;;;;5054667;28;19964;-31
2024/02/09 05:08:52;;;;;;;18.73;4.00;;;22.30;42.80;;;;;;5057119;28;20041;-35
2024/02/09 05:11:18;;;;;;;11.25;3.50;;;22.30;43.50;;;;;;5063290;28;20031;-33
2024/02/09 05:13:45;;;;;;;10.27;3.90;;;22.30;43.20;;;;;;5054959;28;20029;-33
2024/02/09 05:16:12;;;;;;;11.15;3.83;;;22.30;43.10;;;;;;5060938;28;20301;-34
2024/02/09 05:18:38;;;;;;;14.10;3.80;;;22.30;43.20;;;;;;5059776;28;20025;-36
2024/02/09 05:21:04;;;;;;;11.45;4.10;;;22.30;43.60;;;;;;5063043;28;20064;-33
2024/02/09 05:23:30;;;;;;;13.80;3.95;;;22.30;43.10;;;;;;5056656;28;20052;-32
2024/02/09 05:25:56;;;;;;;9.40;3.20;;;22.20;43.20;;;;;;5063515;28;20037;-36
2024/02/09 05:28:23;;;;;;;11.35;3.60;;;22.20;43.20;;;;;;5043942;28;20029;-32
2024/02/09 05:30:49;;;;;;;7.43;3.42;;;22.20;43.20;;;;;;5054943;28;20033;-33
2024/02/09 05:33:16;;;;;;;7.40;3.40;;;22.20;43.20;;;;;;5057614;28;20034;-35
2024/02/09 05:35:42;;;;;;;;;;;22.20;43.20;;;;;;5059343;28;20044;-36
2024/02/09 05:38:09;;;;;;;6.55;3.33;;;22.10;43.10;;;;;;5062283;28;20611;-33
2024/02/09 05:40:35;;;;;;;7.82;3.72;;;22.10;43.10;;;;;;5056179;28;20093;-37
2024/02/09 05:43:01;;;;;;;9.75;3.47;;;22.10;43.20;;;;;;5062174;28;20068;-34
2024/02/09 05:45:27;;;;;;;8.48;3.50;;;22.00;43.10;;;;;;5057255;28;20064;-31
2024/02/09 05:47:54;;;;;;;6.07;3.50;;;22.00;43.10;;;;;;5056656;28;20047;-34
2024/02/09 05:50:21;;;;;;;9.18;3.13;;;22.00;43.10;;;;;;5059602;28;20029;-35
2024/02/09 05:52:50;;;;;;;7.60;3.10;;;22.00;43.10;;;;;;5053591;28;20033;-35
2024/02/09 05:55:17;;;;;;;5.18;2.90;;;22.00;43.10;;;;;;5038397;28;20040;-36
2024/02/09 05:57:43;;;;;;;5.45;3.20;;;21.90;43.40;;;;;;5058880;28;20021;-38
2024/02/09 06:00:14;;;;;;;5.67;3.23;;;21.90;43.40;;;;;;5059501;28;20037;-35
2024/02/09 06:02:44;;;;;;;5.40;3.05;;;21.90;43.40;;;;;;5055073;28;20056;-37
2024/02/09 06:05:12;;;;;;;7.68;2.92;;;21.90;43.40;;;;;;5059971;28;20049;-32
2024/02/09 06:07:39;;;;;;;5.28;3.20;;;21.90;43.40;;;;;;5077741;28;20043;-34
2024/02/09 06:10:06;;;;;;;5.85;3.42;;;21.90;43.40;;;;;;5077568;28;20040;-35
2024/02/09 06:12:32;;;;;;;4.73;2.97;;;21.80;43.40;;;;;;5066976;28;20033;-36
2024/02/09 06:15:03;;;;;;;5.05;2.90;;;21.80;43.50;;;;;;5079085;28;20284;-34
2024/02/09 06:17:29;;;;;;;4.53;2.92;;;21.80;43.50;;;;;;5076174;28;20523;-31
2024/02/09 06:19:55;;;;;;;3.70;2.63;;;21.80;43.40;;;;;;5080425;28;20098;-31
2024/02/09 06:22:21;;;;;;;5.35;3.03;;;21.80;43.40;;;;;;5080035;28;20036;-32
2024/02/09 06:24:54;;;;;;;4.65;3.15;;;21.80;43.40;;;;;;5077398;28;20109;-38
2024/02/09 06:27:21;;;;;;;4.80;2.95;;;21.70;43.40;;;;;;5074333;28;20469;-35
2024/02/09 06:29:48;;;;;;;4.60;3.10;;;21.70;43.40;;;;;;5075595;28;20131;-35
2024/02/09 06:32:14;;;;;;;4.15;2.95;;;21.70;43.40;;;;;;5078222;28;20111;-33
2024/02/09 06:34:40;;;;;;;4.72;3.15;;;21.70;43.30;;;;;;5081005;28;20099;-34
2024/02/09 06:37:06;;;;;;;5.60;3.33;;;21.70;43.40;;;;;;5077303;28;20089;-34
2024/02/09 06:39:33;;;;;;;3.92;2.97;;;21.70;43.40;;;;;;5074908;28;20031;-32
2024/02/09 06:41:59;;;;;;;3.77;3.00;;;21.70;43.40;;;;;;5062404;28;20047;-35
2024/02/09 06:44:25;;;;;;;3.92;2.92;;;21.70;43.50;;;;;;5066388;28;20612;-33
2024/02/09 06:46:51;;;;;;;3.30;2.78;;;21.70;43.50;;;;;;5066954;28;20048;-37
2024/02/09 06:49:17;;;;;;;4.57;3.03;;;21.70;43.50;;;;;;5067653;28;20530;-34
2024/02/09 06:51:45;;;;;;;4.07;2.70;;;21.70;43.50;;;;;;5068878;28;20033;-34
2024/02/09 06:54:11;;;;;;;5.70;2.95;;;21.70;43.50;;;;;;5071167;28;20044;-37
2024/02/09 06:56:37;;;;;;;4.15;2.80;;;21.70;43.50;;;;;;5066865;28;20056;-37
2024/02/09 06:59:06;;;;;;;3.75;2.88;;;21.60;43.50;;;;;;5066476;28;20037;-36
2024/02/09 07:01:32;;;;;;;3.80;3.03;;;21.60;43.50;;;;;;5068126;28;20080;-38
2024/02/09 07:03:58;;;;;;;4.45;3.25;;;21.60;43.50;;;;;;5062083;28;20034;-34
2024/02/09 07:06:24;;;;;;;5.30;3.17;;;21.70;43.50;;;;;;5048703;28;20037;-35
2024/02/09 07:08:53;;;;;;;3.38;2.75;;;21.60;43.50;;;;;;5046607;28;20133;-34
2024/02/09 07:11:19;;;;;;;4.13;2.97;;;21.60;43.50;;;;;;5047396;28;20045;-36
2024/02/09 07:13:46;;;;;;;3.92;2.80;;;21.60;43.50;;;;;;5045796;28;20034;-33
2024/02/09 07:16:12;;;;;;;3.05;2.50;;;21.60;43.60;;;;;;5044859;28;20037;-37
2024/02/09 07:18:40;;;;;;;3.50;2.80;;;21.60;43.60;;;;;;5047126;28;20037;-39
2024/02/09 07:21:10;;;;;;;3.58;2.90;;;21.60;43.50;;;;;;5045827;28;20555;-31
2024/02/09 07:23:40;;;;;;;3.90;2.90;;;21.60;43.50;;;;;;5039938;28;20037;-36
2024/02/09 07:26:09;;;;;;;3.65;2.90;;;21.60;43.50;;;;;;5045852;28;20049;-36
2024/02/09 07:28:40;;;;;;;4.47;2.95;;;21.60;43.60;;;;;;5046517;28;20026;-38
2024/02/09 07:31:08;;;;;;;3.20;2.42;;;21.50;43.60;;;;;;5047719;28;20040;-37
2024/02/09 07:33:35;;;;;;;3.17;2.70;;;21.50;43.60;;;;;;5049543;28;20040;-36
2024/02/09 07:36:01;;;;;;;3.17;2.72;;;21.50;43.60;;;;;;5048429;28;20033;-37
2024/02/09 07:38:27;;;;;;;2.93;2.37;;;21.50;43.60;;;;;;5051759;28;21684;-34
2024/02/09 07:40:53;;;;;;;5.15;3.38;;;21.60;43.60;;;;;;5048816;28;20088;-33
2024/02/09 07:43:20;;;;;;;2.92;2.50;;;21.50;43.60;;;;;;5028779;28;20055;-32
2024/02/09 07:45:47;;;;;;;3.80;3.38;;;21.50;43.70;;;;;;5044383;28;20057;-33
2024/02/09 07:48:13;;;;;;;3.03;2.67;;;21.50;44.30;;;;;;5047703;28;20037;-36
2024/02/09 07:50:41;;;;;;;3.58;2.88;;;21.50;43.70;;;;;;5047228;28;20123;-36
2024/02/09 07:53:08;;;;;;;3.70;2.75;;;21.50;43.70;;;;;;5047386;28;20043;-32
2024/02/09 07:55:34;;;;;;;3.92;2.60;;;21.50;43.70;;;;;;5046252;28;20090;-35
2024/02/09 07:58:00;;;;;;;3.42;3.00;;;21.50;43.70;;;;;;5047553;28;20037;-34
2024/02/09 08:00:26;;;;;;;3.05;2.60;;;21.50;43.80;;;;;;5047461;28;20032;-36
2024/02/09 08:02:52;;;;;;;3.88;3.05;;;21.50;43.80;;;;;;5048200;28;20039;-35
2024/02/09 08:05:19;;;;;;;3.05;2.72;;;21.50;43.80;;;;;;5060615;28;20045;-36
2024/02/09 08:07:46;;;;;;;3.20;2.90;;;21.50;43.70;;;;;;5064160;28;20393;-34
2024/02/09 08:10:16;;;;;;;3.47;2.70;;;21.40;43.70;;;;;;5067110;28;20037;-31
2024/02/09 08:12:42;;;;;;;3.55;2.85;;;21.40;43.70;;;;;;5046145;28;20043;-35
2024/02/09 08:15:11;;;;;;;2.95;2.65;;;21.40;43.80;;;;;;5066484;28;20025;-33
2024/02/09 08:17:47;;;;;;;2.60;2.35;;;21.40;43.80;;;;;;5066280;28;20546;-33
2024/02/09 08:20:14;;;;;;;3.15;2.85;;;21.40;43.80;;;;;;5067523;28;20117;-33
2024/02/09 08:22:44;;;;;;;3.87;2.77;;;21.50;43.80;;;;;;5048784;28;20044;-36
2024/02/09 08:25:11;;;;;;;3.60;3.10;;;21.40;43.80;;;;;;5070466;28;20059;-35
2024/02/09 08:27:38;;;;;;;4.63;2.80;;;21.40;43.80;;;;;;5050297;28;20037;-32
2024/02/09 08:30:07;;;;;;;3.92;2.85;;;21.40;43.80;;;;;;5069019;28;20029;-36
2024/02/09 08:32:34;;;;;;;3.40;2.88;;;21.40;43.90;;;;;;5071093;28;20096;-33
2024/02/09 08:35:00;;;;;;;3.13;2.63;;;21.40;43.90;;;;;;5075936;28;20040;-32
2024/02/09 08:37:29;;;;;;;3.58;2.88;;;21.40;43.80;;;;;;5069933;28;20086;-33
2024/02/09 08:39:58;;;;;;;3.50;2.55;;;21.40;43.80;;;;;;5072423;28;20477;-34
2024/02/09 08:42:26;;;;;;;4.60;3.20;;;21.40;43.90;;;;;;5071271;28;20028;-37
2024/02/09 08:44:53;;;;;;;3.42;2.97;;;21.30;43.90;;;;;;5075893;28;20066;-35
2024/02/09 08:47:19;;;;;;;3.15;2.45;;;21.30;43.90;;;;;;5069150;28;20096;-34
2024/02/09 08:49:45;;;;;;;3.55;3.10;;;21.40;44.10;;;;;;5075093;28;20024;-32
2024/02/09 08:52:14;;;;;;;3.17;2.72;;;21.40;44.00;;;;;;5075534;28;20029;-32
2024/02/09 08:54:40;;;;;;;3.42;3.10;;;21.40;44.00;;;;;;5081164;28;20040;-35
2024/02/09 08:57:06;;;;;;;3.10;2.65;;;21.40;43.90;;;;;;5076998;28;20021;-31
2024/02/09 08:59:35;;;;;;;5.47;3.17;;;21.50;44.00;;;;;;5075186;28;20043;-35
2024/02/09 09:02:01;;;;;;;5.28;3.08;;;21.50;43.90;;;;;;5077410;28;20033;-33
2024/02/09 09:04:27;;;;;;;3.47;2.90;;;21.50;44.00;;;;;;5074403;28;20056;-34
2024/02/09 09:06:54;;;;;;;3.58;2.92;;;21.50;44.10;;;;;;5073174;28;20049;-36
2024/02/09 09:09:21;;;;;;;3.55;2.90;;;21.50;43.90;;;;;;5078563;28;20040;-34
2024/02/09 09:11:47;;;;;;;3.92;3.13;;;21.60;44.00;;;;;;5074242;28;20119;-33
2024/02/09 09:14:13;;;;;;;4.40;3.05;;;21.60;43.90;;;;;;5073662;28;20108;-33
2024/02/09 09:16:39;;;;;;;7.10;2.92;;;21.60;44.00;;;;;;5072308;28;20036;-35
2024/02/09 09:19:08;;;;;;;5.88;3.05;;;21.60;44.10;;;;;;5074218;28;20036;-34
2024/02/09 09:21:38;;;;;;;3.95;2.67;;;21.60;44.10;;;;;;5082622;28;20032;-33
2024/02/09 09:24:08;;;;;;;3.33;2.63;;;21.60;44.00;;;;;;5061270;28;20039;-32
2024/02/09 09:26:34;;;;;;;3.33;2.67;;;21.70;44.00;;;;;;5068312;28;20109;-35
2024/02/09 09:29:00;;;;;;;3.92;2.88;;;21.70;44.60;;;;;;5072934;28;20033;-35
2024/02/09 09:31:27;;;;;;;3.63;2.95;;;21.70;44.00;;;;;;5075603;28;20111;-35
2024/02/09 09:33:56;;;;;;;6.93;3.20;;;21.70;43.90;;;;;;5071033;28;20041;-34
2024/02/09 09:36:23;;;;;;;3.13;2.78;;;21.70;44.00;;;;;;5073825;28;20028;-31
2024/02/09 09:38:49;;;;;;;6.18;3.15;;;21.70;44.00;;;;;;5075907;28;20028;-31
2024/02/09 09:41:17;;;;;;;6.13;2.92;;;21.80;44.10;;;;;;5075006;28;20029;-34
2024/02/09 09:43:43;;;;;;;3.78;2.92;;;21.80;44.10;;;;;;5076450;28;20021;-36
2024/02/09 09:46:11;;;;;;;6.18;2.97;;;21.80;43.90;;;;;;5078430;28;20066;-32
2024/02/09 09:48:39;;;;;;;3.10;2.80;;;21.80;44.00;;;;;;5077851;28;20024;-32
2024/02/09 09:51:05;;;;;;;;;;;21.80;43.90;;;;;;5077486;28;20037;-36
2024/02/09 09:53:42;;;;;;;3.35;2.85;;;21.80;44.50;;;;;;5080932;28;19908;-36
2024/02/09 09:56:09;;;;;;;3.75;3.20;;;21.80;43.90;;;;;;5074407;28;20082;-34
2024/02/09 09:58:36;;;;;;;5.05;3.03;;;21.80;43.90;;;;;;5077631;28;20059;-33
2024/02/09 10:01:08;;;;;;;3.83;2.92;;;21.80;43.80;;;;;;5073722;28;20029;-37
2024/02/09 10:03:38;;;;;;;4.80;3.05;;;21.80;43.80;;;;;;5073913;28;20067;-37
2024/02/09 10:06:04;;;;;;;3.67;2.88;;;21.80;43.70;;;;;;5073230;28;20045;-32
2024/02/09 10:08:31;;;;;;;5.80;2.70;;;21.80;43.70;;;;;;5056906;28;20119;-34
2024/02/09 10:10:57;;;;;;;5.32;3.10;;;21.90;43.90;;;;;;5065796;28;20056;-37
2024/02/09 10:13:25;;;;;;;5.55;3.28;;;21.90;43.90;;;;;;5067603;28;20029;-32
2024/02/09 10:15:51;;;;;;;3.45;2.80;;;21.90;43.80;;;;;;5066346;28;20054;-34
2024/02/09 10:18:18;;;;;;;5.05;2.90;;;21.90;43.80;;;;;;5076510;28;20495;-33
2024/02/09 10:20:48;;;;;;;4.13;3.22;;;21.90;43.80;;;;;;5070678;28;20062;-34
2024/02/09 10:23:18;;;;;;;4.25;2.90;;;21.90;43.80;;;;;;5076443;28;20029;-32
2024/02/09 10:25:44;;;;;;;4.57;3.03;;;21.90;43.80;;;;;;5073610;28;20118;-34
2024/02/09 10:28:13;;;;;;;4.05;2.80;;;21.90;43.80;;;;;;5071669;28;20771;-35
2024/02/09 10:30:39;;;;;;;3.88;3.13;;;21.90;43.70;;;;;;5069852;28;20044;-33
2024/02/09 10:33:15;;;;;;;3.65;2.80;;;21.90;43.70;;;;;;5072228;28;20044;-34
2024/02/09 10:35:41;;;;;;;4.00;2.88;;;21.90;43.70;;;;;;5074536;28;20033;-32
2024/02/09 10:38:07;;;;;;;4.57;3.25;;;21.90;43.70;;;;;;5066312;28;20059;-32
2024/02/09 10:40:34;;;;;;;4.97;2.80;;;21.90;43.70;;;;;;5075759;28;20021;-33
2024/02/09 10:43:00;;;;;;;3.83;3.00;;;21.90;43.70;;;;;;5039654;28;20059;-34
2024/02/09 10:45:27;;;;;;;3.45;2.72;;;21.90;43.70;;;;;;5060679;28;20024;-34
2024/02/09 10:47:55;;;;;;;3.47;2.93;;;22.00;43.70;;;;;;5076642;28;20024;-32
2024/02/09 10:50:21;;;;;;;3.22;2.83;;;22.00;43.60;;;;;;5054060;28;20038;-34
2024/02/09 10:52:51;;;;;;;3.17;2.87;;;22.00;43.60;;;;;;5072076;28;20031;-35
2024/02/09 10:55:21;;;;;;;3.28;2.90;;;22.00;43.60;;;;;;5074536;28;20346;-34
2024/02/09 10:57:50;;;;;;;4.47;3.25;;;21.90;43.60;;;;;;5079241;28;20059;-32
2024/02/09 11:00:16;;;;;;;3.70;2.92;;;22.00;43.60;;;;;;5078392;28;20554;-30
2024/02/09 11:02:43;;;;;;;3.53;2.95;;;22.00;43.50;;;;;;5072647;28;20044;-33
2024/02/09 11:05:14;;;;;;;3.78;3.00;;;22.00;43.50;;;;;;5076746;28;20057;-32
2024/02/09 11:07:45;;;;;;;3.60;3.17;;;22.00;43.50;;;;;;5053991;28;20033;-37
2024/02/09 11:10:16;;;;;;;3.60;2.72;;;22.00;43.50;;;;;;5078796;28;20059;-34
2024/02/09 11:12:42;;;;;;;4.18;3.00;;;22.00;43.50;;;;;;5073592;28;20037;-34
2024/02/09 11:15:15;;;;;;;3.03;2.72;;;22.00;43.50;;;;;;5075662;28;20024;-33
2024/02/09 11:17:47;;;;;;;3.53;3.00;;;22.00;43.50;;;;;;5073930;28;20118;-37
2024/02/09 11:20:14;;;;;;;3.13;2.78;;;22.00;43.50;;;;;;5080667;28;20044;-35
2024/02/09 11:22:49;;;;;;;3.60;3.30;;;22.00;43.50;;;;;;5072082;28;20033;-35
2024/02/09 11:25:22;;;;;;;3.50;2.92;;;22.00;43.50;;;;;;5061742;28;20334;-31
2024/02/09 11:27:51;;;;;;;4.38;3.08;;;22.00;43.50;;;;;;5055801;28;20036;-36
2024/02/09 11:30:20;;;;;;;3.70;3.05;;;22.00;44.10;;;;;;5058557;28;20691;-34
2024/02/09 11:32:48;;;;;;;3.60;2.97;;;22.00;43.50;;;;;;5075930;28;20025;-37
2024/02/09 11:35:17;;;;;;;3.53;2.90;;;22.00;43.50;;;;;;5079494;28;20033;-33
2024/02/09 11:37:47;;;;;;;3.28;2.95;;;22.00;43.50;;;;;;5078458;28;20048;-31
2024/02/09 11:40:17;;;;;;;3.65;3.30;;;22.00;43.50;;;;;;5055390;28;20020;-33
2024/02/09 11:42:44;;;;;;;3.65;2.83;;;22.00;43.50;;;;;;5076686;28;20107;-34
2024/02/09 11:45:10;;;;;;;3.17;2.75;;;22.00;43.50;;;;;;5062018;28;20693;-36
2024/02/09 11:47:39;;;;;;;3.92;3.17;;;22.00;43.50;;;;;;5075017;28;20033;-33
2024/02/09 11:50:07;;;;;;;2.90;2.60;;;22.00;43.50;;;;;;5075926;28;20031;-35
2024/02/09 11:52:35;;;;;;;3.95;2.90;;;22.00;43.50;;;;;;5072189;28;20767;-32
2024/02/09 11:55:02;;;;;;;3.67;2.67;;;22.00;43.50;;;;;;5069137;28;20047;-37
2024/02/09 11:57:28;;;;;;;3.43;2.77;;;22.00;43.70;;;;;;5073720;28;20033;-30
2024/02/09 11:59:54;;;;;;;3.80;2.72;;;22.00;43.70;;;;;;5071125;28;20044;-33
2024/02/09 12:02:21;;;;;;;3.47;3.13;;;22.00;43.60;;;;;;5070961;28;20059;-32
2024/02/09 12:04:51;;;;;;;4.63;3.13;;;22.10;43.60;;;;;;5046017;28;20112;-32
2024/02/09 12:07:17;;;;;;;5.72;3.38;;;22.00;43.60;;;;;;5055816;28;20047;-36
2024/02/09 12:09:43;;;;;;;3.65;2.88;;;22.00;43.60;;;;;;5059576;28;20029;-33
2024/02/09 12:12:09;;;;;;;3.35;2.80;;;22.00;43.70;;;;;;5058219;28;20049;-33
2024/02/09 12:14:37;;;;;;;3.90;2.92;;;22.00;43.60;;;;;;5057163;28;20032;-35
2024/02/09 12:17:04;;;;;;;3.15;2.85;;;22.10;43.60;;;;;;5055543;28;20044;-32
2024/02/09 12:19:31;;;;;;;3.25;2.83;;;22.10;43.60;;;;;;5061413;28;20078;-34
2024/02/09 12:22:00;;;;;;;3.10;2.60;;;22.10;43.60;;;;;;5057401;28;20101;-34
2024/02/09 12:24:27;;;;;;;3.88;3.05;;;22.10;43.60;;;;;;5057631;28;21044;-33
2024/02/09 12:26:54;;;;;;;2.85;2.53;;;22.10;43.60;;;;;;5058068;28;20033;-35
2024/02/09 12:29:20;;;;;;;3.15;2.83;;;22.10;43.60;;;;;;5057288;28;20017;-34
2024/02/09 12:31:47;;;;;;;3.30;2.55;;;22.10;43.60;;;;;;5057571;28;20025;-30
2024/02/09 12:34:16;;;;;;;3.60;3.20;;;22.10;43.60;;;;;;5055810;28;20121;-34
2024/02/09 12:36:57;;;;;;;3.65;2.92;;;22.10;43.60;;;;;;5055467;28;20026;-36
2024/02/09 12:39:23;;;;;;;3.92;2.97;;;22.10;43.60;;;;;;5058161;28;20151;-35
2024/02/09 12:42:00;;;;;;;4.93;3.13;;;22.10;43.60;;;;;;5059489;28;20029;-36
2024/02/09 12:44:27;;;;;;;4.22;2.83;;;22.10;43.60;;;;;;5037720;28;21749;-36
2024/02/09 12:46:55;;;;;;;4.13;2.90;;;22.10;43.50;;;;;;5055508;28;20049;-34
2024/02/09 12:49:21;;;;;;;4.47;3.15;;;22.10;43.60;;;;;;5052485;28;20029;-32
2024/02/09 12:51:51;;;;;;;3.63;3.10;;;22.10;43.50;;;;;;5054357;28;20051;-32
2024/02/09 12:54:17;;;;;;;3.72;2.97;;;22.10;43.50;;;;;;5054738;28;20036;-34
2024/02/09 12:56:43;;;;;;;3.15;2.83;;;22.10;43.50;;;;;;5053860;28;20075;-33
2024/02/09 12:59:09;;;;;;;3.73;3.10;;;22.10;43.50;;;;;;5056243;28;20486;-37
2024/02/09 13:01:36;;;;;;;3.70;3.10;;;22.10;43.50;;;;;;5051443;28;20086;-32
2024/02/09 13:04:02;;;;;;;3.80;2.75;;;22.10;43.50;;;;;;5052316;28;20029;-35
2024/02/09 13:06:28;;;;;;;3.90;3.08;;;22.20;43.50;;;;;;5073105;28;20062;-32
2024/02/09 13:08:56;;;;;;;3.53;3.20;;;22.10;43.50;;;;;;5078696;28;20032;-33
2024/02/09 13:11:24;;;;;;;3.75;2.85;;;22.10;43.50;;;;;;5074043;28;20378;-34
2024/02/09 13:13:50;;;;;;;4.20;3.13;;;22.10;43.50;;;;;;5077711;28;20136;-35
2024/02/09 13:16:17;;;;;;;3.95;3.20;;;22.10;43.50;;;;;;5069282;28;20071;-37
2024/02/09 13:18:44;;;;;;;3.63;2.97;;;22.20;43.50;;;;;;5077353;28;20021;-34
2024/02/09 13:21:10;;;;;;;3.97;3.28;;;22.20;43.50;;;;;;5078602;28;20066;-34
2024/02/09 13:23:38;;;;;;;3.05;2.53;;;22.20;43.50;;;;;;5074700;28;20043;-33
2024/02/09 13:26:11;;;;;;;4.13;3.20;;;22.20;43.40;;;;;;5078722;28;20044;-32
2024/02/09 13:28:39;;;;;;;3.60;3.00;;;22.20;43.50;;;;;;5075527;28;20037;-33
2024/02/09 13:31:10;;;;;;;3.40;2.97;;;22.20;43.50;;;;;;5077740;28;20048;-33
2024/02/09 13:33:41;;;;;;;4.35;3.33;;;22.20;43.40;;;;;;5076647;28;20043;-36
2024/02/09 13:36:08;;;;;;;3.50;3.05;;;22.20;43.50;;;;;;5061147;28;20024;-34
2024/02/09 13:38:37;;;;;;;3.63;2.92;;;22.20;43.40;;;;;;5063071;28;20043;-33
2024/02/09 13:41:03;;;;;;;3.83;3.03;;;22.20;43.40;;;;;;5080823;28;20059;-34
2024/02/09 13:43:30;;;;;;;7.15;3.53;;;22.20;43.40;;;;;;5080893;28;20033;-34
2024/02/09 13:45:56;;;;;;;3.40;3.10;;;22.20;43.40;;;;;;5061932;28;20036;-36
2024/02/09 13:48:22;;;;;;;3.83;3.10;;;22.20;43.50;;;;;;5079589;28;20045;-35
2024/02/09 13:50:48;;;;;;;3.65;3.00;;;22.30;43.70;;;;;;5077370;28;20028;-38
2024/02/09 13:53:15;;;;;;;5.57;3.22;;;22.30;43.70;;;;;;5075782;28;20142;-32
2024/02/09 13:55:43;;;;;;;4.47;3.33;;;22.30;43.70;;;;;;5078895;28;20044;-32
2024/02/09 13:58:09;;;;;;;3.55;2.83;;;22.30;43.60;;;;;;5078454;28;20028;-36
2024/02/09 14:00:35;;;;;;;4.47;3.30;;;22.30;43.50;;;;;;5072868;28;20059;-35
2024/02/09 14:03:01;;;;;;;3.45;2.92;;;22.20;43.50;;;;;;5074174;28;20032;-36
2024/02/09 14:05:27;;;;;;;3.90;2.97;;;22.30;43.70;;;;;;5073255;28;20048;-32
2024/02/09 14:07:53;;;;;;;3.65;3.15;;;22.30;43.70;;;;;;5078008;28;20037;-34
2024/02/09 14:10:20;;;;;;;3.92;3.40;;;22.30;43.60;;;;;;5075294;28;20039;-37
2024/02/09 14:12:47;;;;;;;4.18;3.38;;;22.30;43.60;;;;;;5074693;28;20032;-37
2024/02/09 14:15:13;;;;;;;4.00;3.40;;;22.30;43.70;;;;;;5073733;28;20883;-35
2024/02/09 14:17:39;;;;;;;4.25;3.30;;;22.30;43.60;;;;;;5075588;28;20033;-33
2024/02/09 14:20:06;;;;;;;4.18;3.05;;;22.30;43.50;;;;;;5076123;28;20029;-36
2024/02/09 14:22:32;;;;;;;5.55;3.25;;;22.30;43.50;;;;;;5076714;28;20063;-36
2024/02/09 14:24:59;;;;;;;4.95;3.35;;;22.30;43.50;;;;;;5073183;28;20031;-30
2024/02/09 14:27:25;;;;;;;4.70;3.23;;;22.30;43.60;;;;;;5070535;28;20040;-36
2024/02/09 14:29:52;;;;;;;3.83;3.03;;;22.30;43.60;;;;;;5074115;28;20029;-31
2024/02/09 14:32:19;;;;;;;4.07;3.33;;;22.30;43.60;;;;;;5074874;28;20538;-36
2024/02/09 14:34:45;;;;;;;3.58;3.25;;;22.30;43.60;;;;;;5070706;28;20032;-34
2024/02/09 14:37:11;;;;;;;4.57;3.58;;;22.30;43.60;;;;;;5079741;28;20032;-36